ENCN/KRS METAR and TAF weather

Enter ICAO airport designator
Station Type Date Time Source
ENCN METAR 2022/11/30 10:50 UTC NOAA

ENCN 301050Z 04009KT 9999 -DZ FEW013 BKN020 04/02 Q1031


Station Type Date Time Source
ENCN Decoded METAR 2022/11/30 10:50 UTC NOAA

Kristiansand / Kjevik, Norway (ENCN) 58-12N 008-05E 17M
Nov 30, 2022 - 05:50 AM EST / 2022.11.30 1050 UTC
Wind: from the NE (040 degrees) at 10 MPH (9 KT):0
Visibility: greater than 7 mile(s):0
Sky conditions: mostly cloudy
Weather: light drizzle
Temperature: 39 F (4 C)
Dew Point: 35 F (2 C)
Relative Humidity: 86%
Pressure (altimeter): 30.45 in. Hg (1031 hPa)
ob: ENCN 301050Z 04009KT 9999 -DZ FEW013 BKN020 04/02 Q1031
cycle: 11

Station Type Date Time Source
ENCN TAF 2016/05/06 12:39 UTC NOAA

TAF TAF ENCN 061100Z 0612/0712 14008KT 9999 FEW040

Example: see airport list